sensor_id;sensor_type;location;lat;lon;timestamp;pressure;altitude;pressure_sealevel;temperature
68745;BMP180;55731;45.456;11.064;2022-10-18T00:00:56;102017.40;;;17.80
68745;BMP180;55731;45.456;11.064;2022-10-18T00:03:33;102012.00;;;17.80
68745;BMP180;55731;45.456;11.064;2022-10-18T00:06:10;102014.00;;;17.80
68745;BMP180;55731;45.456;11.064;2022-10-18T00:08:47;102018.60;;;17.80
68745;BMP180;55731;45.456;11.064;2022-10-18T00:11:23;102016.40;;;17.80
68745;BMP180;55731;45.456;11.064;2022-10-18T00:13:59;102018.60;;;17.80
68745;BMP180;55731;45.456;11.064;2022-10-18T00:16:36;102018.80;;;17.70
68745;BMP180;55731;45.456;11.064;2022-10-18T00:19:13;102014.20;;;17.70
68745;BMP180;55731;45.456;11.064;2022-10-18T00:21:50;102016.80;;;17.70
68745;BMP180;55731;45.456;11.064;2022-10-18T00:24:27;102010.80;;;17.70
68745;BMP180;55731;45.456;11.064;2022-10-18T00:27:04;102009.20;;;17.70
68745;BMP180;55731;45.456;11.064;2022-10-18T00:29:41;102008.20;;;17.70
68745;BMP180;55731;45.456;11.064;2022-10-18T00:32:18;102006.00;;;17.60
68745;BMP180;55731;45.456;11.064;2022-10-18T00:34:55;101997.80;;;17.60
68745;BMP180;55731;45.456;11.064;2022-10-18T00:37:32;101994.00;;;17.60
68745;BMP180;55731;45.456;11.064;2022-10-18T00:40:10;101990.80;;;17.52
68745;BMP180;55731;45.456;11.064;2022-10-18T00:42:47;101992.20;;;17.50
68745;BMP180;55731;45.456;11.064;2022-10-18T00:45:26;101987.20;;;17.50
68745;BMP180;55731;45.456;11.064;2022-10-18T00:48:05;101985.00;;;17.50
68745;BMP180;55731;45.456;11.064;2022-10-18T00:50:44;101983.60;;;17.50
68745;BMP180;55731;45.456;11.064;2022-10-18T00:53:24;101985.00;;;17.50
68745;BMP180;55731;45.456;11.064;2022-10-18T00:56:00;101980.60;;;17.50
68745;BMP180;55731;45.456;11.064;2022-10-18T00:58:37;101981.20;;;17.46
68745;BMP180;55731;45.456;11.064;2022-10-18T01:01:14;101978.00;;;17.40
68745;BMP180;55731;45.456;11.064;2022-10-18T01:03:52;101975.40;;;17.40
68745;BMP180;55731;45.456;11.064;2022-10-18T01:06:32;101972.80;;;17.40
68745;BMP180;55731;45.456;11.064;2022-10-18T01:09:27;101971.60;;;17.50
68745;BMP180;55731;45.456;11.064;2022-10-18T01:12:20;101972.20;;;17.50
68745;BMP180;55731;45.456;11.064;2022-10-18T01:15:12;101975.40;;;17.60
68745;BMP180;55731;45.456;11.064;2022-10-18T01:18:00;101972.40;;;17.60
68745;BMP180;55731;45.456;11.064;2022-10-18T01:21:18;101969.00;;;17.60
68745;BMP180;55731;45.456;11.064;2022-10-18T01:24:56;101967.20;;;17.60
68745;BMP180;55731;45.456;11.064;2022-10-18T01:27:54;101964.20;;;17.60
68745;BMP180;55731;45.456;11.064;2022-10-18T01:30:43;101958.00;;;17.56
68745;BMP180;55731;45.456;11.064;2022-10-18T01:33:40;101959.00;;;17.50
68745;BMP180;55731;45.456;11.064;2022-10-18T01:36:24;101964.00;;;17.52
68745;BMP180;55731;45.456;11.064;2022-10-18T01:39:07;101964.20;;;17.50
68745;BMP180;55731;45.456;11.064;2022-10-18T01:41:48;101956.80;;;17.50
68745;BMP180;55731;45.456;11.064;2022-10-18T01:44:28;101955.00;;;17.50
68745;BMP180;55731;45.456;11.064;2022-10-18T01:47:10;101955.00;;;17.50
68745;BMP180;55731;45.456;11.064;2022-10-18T01:49:48;101955.00;;;17.50
68745;BMP180;55731;45.456;11.064;2022-10-18T01:52:25;101951.00;;;17.50
68745;BMP180;55731;45.456;11.064;2022-10-18T01:55:04;101946.20;;;17.40
68745;BMP180;55731;45.456;11.064;2022-10-18T01:57:50;101942.00;;;17.40
68745;BMP180;55731;45.456;11.064;2022-10-18T02:00:40;101939.60;;;17.40
68745;BMP180;55731;45.456;11.064;2022-10-18T02:03:22;101941.20;;;17.40
68745;BMP180;55731;45.456;11.064;2022-10-18T02:06:07;101938.60;;;17.40
68745;BMP180;55731;45.456;11.064;2022-10-18T02:08:51;101938.00;;;17.40
68745;BMP180;55731;45.456;11.064;2022-10-18T02:11:32;101930.40;;;17.34
68745;BMP180;55731;45.456;11.064;2022-10-18T02:14:14;101933.40;;;17.30
68745;BMP180;55731;45.456;11.064;2022-10-18T02:16:55;101931.00;;;17.30
68745;BMP180;55731;45.456;11.064;2022-10-18T02:19:36;101929.60;;;17.30
68745;BMP180;55731;45.456;11.064;2022-10-18T02:22:16;101928.60;;;17.30
68745;BMP180;55731;45.456;11.064;2022-10-18T02:24:55;101930.00;;;17.30
68745;BMP180;55731;45.456;11.064;2022-10-18T02:27:33;101923.20;;;17.30
68745;BMP180;55731;45.456;11.064;2022-10-18T02:30:13;101925.40;;;17.24
68745;BMP180;55731;45.456;11.064;2022-10-18T02:32:56;101917.40;;;17.10
68745;BMP180;55731;45.456;11.064;2022-10-18T02:35:40;101918.00;;;17.10
68745;BMP180;55731;45.456;11.064;2022-10-18T02:38:18;101916.80;;;17.10
68745;BMP180;55731;45.456;11.064;2022-10-18T02:40:55;101916.00;;;17.20
68745;BMP180;55731;45.456;11.064;2022-10-18T02:43:32;101910.00;;;17.26
68745;BMP180;55731;45.456;11.064;2022-10-18T02:46:10;101909.20;;;17.30
68745;BMP180;55731;45.456;11.064;2022-10-18T02:48:47;101902.80;;;17.30
68745;BMP180;55731;45.456;11.064;2022-10-18T02:51:23;101902.80;;;17.30
68745;BMP180;55731;45.456;11.064;2022-10-18T02:54:00;101899.40;;;17.30
68745;BMP180;55731;45.456;11.064;2022-10-18T02:56:35;101902.20;;;17.20
68745;BMP180;55731;45.456;11.064;2022-10-18T02:59:11;101903.20;;;17.00
68745;BMP180;55731;45.456;11.064;2022-10-18T03:01:49;101903.00;;;16.90
68745;BMP180;55731;45.456;11.064;2022-10-18T03:04:26;101906.40;;;16.80
68745;BMP180;55731;45.456;11.064;2022-10-18T03:07:03;101909.20;;;16.70
68745;BMP180;55731;45.456;11.064;2022-10-18T03:09:40;101913.20;;;16.70
68745;BMP180;55731;45.456;11.064;2022-10-18T03:12:17;101911.40;;;16.70
68745;BMP180;55731;45.456;11.064;2022-10-18T03:14:53;101913.20;;;16.70
68745;BMP180;55731;45.456;11.064;2022-10-18T03:17:30;101910.40;;;16.70
68745;BMP180;55731;45.456;11.064;2022-10-18T03:20:09;101910.40;;;16.70
68745;BMP180;55731;45.456;11.064;2022-10-18T03:22:46;101910.00;;;16.60
68745;BMP180;55731;45.456;11.064;2022-10-18T03:25:23;101908.40;;;16.52
68745;BMP180;55731;45.456;11.064;2022-10-18T03:28:00;101911.80;;;16.50
68745;BMP180;55731;45.456;11.064;2022-10-18T03:30:36;101916.80;;;16.50
68745;BMP180;55731;45.456;11.064;2022-10-18T03:33:14;101910.80;;;16.50
68745;BMP180;55731;45.456;11.064;2022-10-18T03:35:50;101913.40;;;16.50
68745;BMP180;55731;45.456;11.064;2022-10-18T03:38:27;101914.60;;;16.52
68745;BMP180;55731;45.456;11.064;2022-10-18T03:41:04;101914.40;;;16.60
68745;BMP180;55731;45.456;11.064;2022-10-18T03:43:40;101915.80;;;16.60
68745;BMP180;55731;45.456;11.064;2022-10-18T03:46:17;101913.40;;;16.60
68745;BMP180;55731;45.456;11.064;2022-10-18T03:48:53;101914.80;;;16.60
68745;BMP180;55731;45.456;11.064;2022-10-18T03:51:30;101910.80;;;16.62
68745;BMP180;55731;45.456;11.064;2022-10-18T03:54:07;101905.80;;;16.70
68745;BMP180;55731;45.456;11.064;2022-10-18T03:56:45;101901.20;;;16.70
68745;BMP180;55731;45.456;11.064;2022-10-18T03:59:22;101902.60;;;16.60
68745;BMP180;55731;45.456;11.064;2022-10-18T04:01:59;101904.20;;;16.58
68745;BMP180;55731;45.456;11.064;2022-10-18T04:04:36;101909.00;;;16.50
68745;BMP180;55731;45.456;11.064;2022-10-18T04:07:13;101909.20;;;16.50
68745;BMP180;55731;45.456;11.064;2022-10-18T04:09:49;101911.00;;;16.50
68745;BMP180;55731;45.456;11.064;2022-10-18T04:12:25;101908.60;;;16.50
68745;BMP180;55731;45.456;11.064;2022-10-18T04:15:02;101909.40;;;16.50
68745;BMP180;55731;45.456;11.064;2022-10-18T04:17:38;101911.00;;;16.50
68745;BMP180;55731;45.456;11.064;2022-10-18T04:20:18;101914.60;;;16.52
68745;BMP180;55731;45.456;11.064;2022-10-18T04:22:56;101916.40;;;16.52
68745;BMP180;55731;45.456;11.064;2022-10-18T04:25:32;101914.60;;;16.50
68745;BMP180;55731;45.456;11.064;2022-10-18T04:28:10;101914.20;;;16.50
68745;BMP180;55731;45.456;11.064;2022-10-18T04:30:50;101904.60;;;16.40
68745;BMP180;55731;45.456;11.064;2022-10-18T04:33:28;101904.00;;;16.30
68745;BMP180;55731;45.456;11.064;2022-10-18T04:36:06;101907.80;;;16.20
68745;BMP180;55731;45.456;11.064;2022-10-18T04:38:43;101898.80;;;16.20
68745;BMP180;55731;45.456;11.064;2022-10-18T04:41:19;101901.00;;;16.18
68745;BMP180;55731;45.456;11.064;2022-10-18T04:43:56;101904.20;;;16.14
68745;BMP180;55731;45.456;11.064;2022-10-18T04:46:33;101902.60;;;16.20
68745;BMP180;55731;45.456;11.064;2022-10-18T04:49:10;101906.20;;;16.20
68745;BMP180;55731;45.456;11.064;2022-10-18T04:51:47;101903.80;;;16.20
68745;BMP180;55731;45.456;11.064;2022-10-18T04:54:24;101911.60;;;16.20
68745;BMP180;55731;45.456;11.064;2022-10-18T04:57:00;101909.00;;;16.20
68745;BMP180;55731;45.456;11.064;2022-10-18T04:59:37;101907.20;;;16.20
68745;BMP180;55731;45.456;11.064;2022-10-18T05:02:14;101907.80;;;16.20
68745;BMP180;55731;45.456;11.064;2022-10-18T05:04:52;101902.60;;;16.10
68745;BMP180;55731;45.456;11.064;2022-10-18T05:07:28;101899.80;;;16.10
68745;BMP180;55731;45.456;11.064;2022-10-18T05:10:06;101894.00;;;16.00
68745;BMP180;55731;45.456;11.064;2022-10-18T05:12:44;101894.60;;;16.00
68745;BMP180;55731;45.456;11.064;2022-10-18T05:15:21;101895.40;;;16.10
68745;BMP180;55731;45.456;11.064;2022-10-18T05:17:58;101896.80;;;16.10
68745;BMP180;55731;45.456;11.064;2022-10-18T05:20:35;101895.40;;;16.10
68745;BMP180;55731;45.456;11.064;2022-10-18T05:23:12;101897.20;;;16.10
68745;BMP180;55731;45.456;11.064;2022-10-18T05:25:48;101900.80;;;16.10
68745;BMP180;55731;45.456;11.064;2022-10-18T05:28:24;101902.60;;;16.04
68745;BMP180;55731;45.456;11.064;2022-10-18T05:31:16;101896.40;;;16.00
68745;BMP180;55731;45.456;11.064;2022-10-18T05:33:53;101899.60;;;16.00
68745;BMP180;55731;45.456;11.064;2022-10-18T05:36:30;101902.00;;;16.00
68745;BMP180;55731;45.456;11.064;2022-10-18T05:39:08;101900.60;;;16.00
68745;BMP180;55731;45.456;11.064;2022-10-18T05:41:44;101905.80;;;16.00
68745;BMP180;55731;45.456;11.064;2022-10-18T05:44:21;101906.40;;;16.00
68745;BMP180;55731;45.456;11.064;2022-10-18T05:46:58;101906.00;;;16.00
68745;BMP180;55731;45.456;11.064;2022-10-18T05:49:36;101905.40;;;16.00
68745;BMP180;55731;45.456;11.064;2022-10-18T05:52:13;101907.20;;;16.00
68745;BMP180;55731;45.456;11.064;2022-10-18T05:54:50;101910.80;;;16.00
68745;BMP180;55731;45.456;11.064;2022-10-18T05:57:26;101917.20;;;16.00
68745;BMP180;55731;45.456;11.064;2022-10-18T06:00:03;101918.60;;;16.00
68745;BMP180;55731;45.456;11.064;2022-10-18T06:02:44;101918.40;;;16.00
68745;BMP180;55731;45.456;11.064;2022-10-18T06:05:21;101915.00;;;16.00
68745;BMP180;55731;45.456;11.064;2022-10-18T06:07:58;101920.00;;;15.90
68745;BMP180;55731;45.456;11.064;2022-10-18T06:10:43;101918.40;;;15.80
68745;BMP180;55731;45.456;11.064;2022-10-18T06:13:20;101927.80;;;15.90
68745;BMP180;55731;45.456;11.064;2022-10-18T06:16:00;101927.60;;;16.00
68745;BMP180;55731;45.456;11.064;2022-10-18T06:18:36;101922.20;;;16.00
68745;BMP180;55731;45.456;11.064;2022-10-18T06:21:13;101921.80;;;16.02
68745;BMP180;55731;45.456;11.064;2022-10-18T06:23:51;101920.80;;;16.10
68745;BMP180;55731;45.456;11.064;2022-10-18T06:26:30;101917.80;;;16.18
68745;BMP180;55731;45.456;11.064;2022-10-18T06:29:06;101919.40;;;16.20
68745;BMP180;55731;45.456;11.064;2022-10-18T06:31:43;101918.60;;;16.30
68745;BMP180;55731;45.456;11.064;2022-10-18T06:34:20;101922.40;;;16.30
68745;BMP180;55731;45.456;11.064;2022-10-18T06:36:57;101919.60;;;16.36
68745;BMP180;55731;45.456;11.064;2022-10-18T06:39:33;101918.80;;;16.30
68745;BMP180;55731;45.456;11.064;2022-10-18T06:42:09;101919.80;;;16.36
68745;BMP180;55731;45.456;11.064;2022-10-18T06:44:46;101920.40;;;16.40
68745;BMP180;55731;45.456;11.064;2022-10-18T06:47:22;101922.80;;;16.50
68745;BMP180;55731;45.456;11.064;2022-10-18T06:49:59;101922.00;;;16.60
68745;BMP180;55731;45.456;11.064;2022-10-18T06:52:36;101923.40;;;16.70
68745;BMP180;55731;45.456;11.064;2022-10-18T06:55:14;101924.00;;;16.78
68745;BMP180;55731;45.456;11.064;2022-10-18T06:57:51;101926.00;;;16.80
68745;BMP180;55731;45.456;11.064;2022-10-18T07:00:27;101927.20;;;16.80
68745;BMP180;55731;45.456;11.064;2022-10-18T07:03:05;101929.80;;;16.90
68745;BMP180;55731;45.456;11.064;2022-10-18T07:05:41;101935.00;;;16.90
68745;BMP180;55731;45.456;11.064;2022-10-18T07:08:20;101934.80;;;17.00
68745;BMP180;55731;45.456;11.064;2022-10-18T07:10:56;101932.80;;;17.00
68745;BMP180;55731;45.456;11.064;2022-10-18T07:13:34;101929.80;;;17.10
68745;BMP180;55731;45.456;11.064;2022-10-18T07:16:13;101930.60;;;17.18
68745;BMP180;55731;45.456;11.064;2022-10-18T07:18:52;101924.60;;;17.20
68745;BMP180;55731;45.456;11.064;2022-10-18T07:21:29;101929.20;;;17.30
68745;BMP180;55731;45.456;11.064;2022-10-18T07:24:07;101926.00;;;17.40
68745;BMP180;55731;45.456;11.064;2022-10-18T07:26:45;101929.00;;;17.50
68745;BMP180;55731;45.456;11.064;2022-10-18T07:29:21;101930.40;;;17.60
68745;BMP180;55731;45.456;11.064;2022-10-18T07:31:58;101924.60;;;17.70
68745;BMP180;55731;45.456;11.064;2022-10-18T07:34:36;101922.40;;;17.80
68745;BMP180;55731;45.456;11.064;2022-10-18T07:37:13;101923.00;;;17.90
68745;BMP180;55731;45.456;11.064;2022-10-18T07:39:50;101924.20;;;17.98
68745;BMP180;55731;45.456;11.064;2022-10-18T07:42:27;101919.60;;;18.06
68745;BMP180;55731;45.456;11.064;2022-10-18T07:45:04;101920.60;;;18.10
68745;BMP180;55731;45.456;11.064;2022-10-18T07:48:00;101925.20;;;18.20
68745;BMP180;55731;45.456;11.064;2022-10-18T07:50:37;101925.40;;;18.30
68745;BMP180;55731;45.456;11.064;2022-10-18T07:53:14;101923.40;;;18.30
68745;BMP180;55731;45.456;11.064;2022-10-18T07:55:51;101923.20;;;18.40
68745;BMP180;55731;45.456;11.064;2022-10-18T07:58:27;101923.20;;;18.50
68745;BMP180;55731;45.456;11.064;2022-10-18T08:01:10;101921.80;;;18.60
68745;BMP180;55731;45.456;11.064;2022-10-18T08:03:46;101920.20;;;18.66
68745;BMP180;55731;45.456;11.064;2022-10-18T08:06:23;101920.60;;;18.70
68745;BMP180;55731;45.456;11.064;2022-10-18T08:09:00;101919.80;;;18.80
68745;BMP180;55731;45.456;11.064;2022-10-18T08:11:36;101923.20;;;18.76
68745;BMP180;55731;45.456;11.064;2022-10-18T08:14:13;101921.00;;;18.80
68745;BMP180;55731;45.456;11.064;2022-10-18T08:16:50;101923.40;;;18.80
68745;BMP180;55731;45.456;11.064;2022-10-18T08:19:27;101919.20;;;18.90
68745;BMP180;55731;45.456;11.064;2022-10-18T08:22:03;101916.60;;;18.94
68745;BMP180;55731;45.456;11.064;2022-10-18T08:24:40;101919.40;;;19.00
68745;BMP180;55731;45.456;11.064;2022-10-18T08:27:17;101920.60;;;19.10
68745;BMP180;55731;45.456;11.064;2022-10-18T08:29:54;101924.80;;;19.20
68745;BMP180;55731;45.456;11.064;2022-10-18T08:32:30;101928.40;;;19.20
68745;BMP180;55731;45.456;11.064;2022-10-18T08:35:10;101929.20;;;19.30
68745;BMP180;55731;45.456;11.064;2022-10-18T08:37:46;101928.20;;;19.30
68745;BMP180;55731;45.456;11.064;2022-10-18T08:40:22;101926.20;;;19.40
68745;BMP180;55731;45.456;11.064;2022-10-18T08:43:08;101921.80;;;19.50
68745;BMP180;55731;45.456;11.064;2022-10-18T08:45:55;101921.20;;;19.52
68745;BMP180;55731;45.456;11.064;2022-10-18T08:48:38;101919.00;;;19.60
68745;BMP180;55731;45.456;11.064;2022-10-18T08:51:28;101917.80;;;19.70
68745;BMP180;55731;45.456;11.064;2022-10-18T08:54:12;101918.40;;;19.70
68745;BMP180;55731;45.456;11.064;2022-10-18T08:56:57;101913.80;;;19.80
68745;BMP180;55731;45.456;11.064;2022-10-18T08:59:39;101912.60;;;19.88
68745;BMP180;55731;45.456;11.064;2022-10-18T09:02:33;101912.40;;;19.90
68745;BMP180;55731;45.456;11.064;2022-10-18T09:05:26;101905.80;;;20.00
68745;BMP180;55731;45.456;11.064;2022-10-18T09:08:24;101909.20;;;20.10
68745;BMP180;55731;45.456;11.064;2022-10-18T09:11:18;101910.60;;;20.12
68745;BMP180;55731;45.456;11.064;2022-10-18T09:14:19;101902.60;;;20.20
68745;BMP180;55731;45.456;11.064;2022-10-18T09:17:14;101902.80;;;20.30
68745;BMP180;55731;45.456;11.064;2022-10-18T09:20:21;101897.40;;;20.30
68745;BMP180;55731;45.456;11.064;2022-10-18T09:23:04;101902.40;;;20.40
68745;BMP180;55731;45.456;11.064;2022-10-18T09:25:50;101902.00;;;20.48
68745;BMP180;55731;45.456;11.064;2022-10-18T09:28:43;101898.80;;;20.50
68745;BMP180;55731;45.456;11.064;2022-10-18T09:31:30;101899.80;;;20.60
68745;BMP180;55731;45.456;11.064;2022-10-18T09:34:18;101897.00;;;20.60
68745;BMP180;55731;45.456;11.064;2022-10-18T09:36:57;101902.40;;;20.70
68745;BMP180;55731;45.456;11.064;2022-10-18T09:39:37;101900.00;;;20.70
68745;BMP180;55731;45.456;11.064;2022-10-18T09:42:20;101895.20;;;20.80
68745;BMP180;55731;45.456;11.064;2022-10-18T09:45:05;101898.20;;;20.80
68745;BMP180;55731;45.456;11.064;2022-10-18T09:47:51;101897.80;;;20.90
68745;BMP180;55731;45.456;11.064;2022-10-18T09:50:37;101895.40;;;21.00
68745;BMP180;55731;45.456;11.064;2022-10-18T09:53:24;101891.60;;;21.00
68745;BMP180;55731;45.456;11.064;2022-10-18T09:56:07;101888.40;;;21.10
68745;BMP180;55731;45.456;11.064;2022-10-18T09:58:48;101885.00;;;21.10
68745;BMP180;55731;45.456;11.064;2022-10-18T10:01:29;101880.20;;;21.20
68745;BMP180;55731;45.456;11.064;2022-10-18T10:04:07;101876.20;;;21.24
68745;BMP180;55731;45.456;11.064;2022-10-18T10:06:54;101874.60;;;21.30
68745;BMP180;55731;45.456;11.064;2022-10-18T10:09:35;101875.60;;;21.30
68745;BMP180;55731;45.456;11.064;2022-10-18T10:12:32;101874.00;;;21.40
68745;BMP180;55731;45.456;11.064;2022-10-18T10:15:25;101866.20;;;21.50
68745;BMP180;55731;45.456;11.064;2022-10-18T10:18:19;101859.60;;;21.50
68745;BMP180;55731;45.456;11.064;2022-10-18T10:20:59;101857.20;;;21.50
68745;BMP180;55731;45.456;11.064;2022-10-18T10:23:43;101860.60;;;21.58
68745;BMP180;55731;45.456;11.064;2022-10-18T10:26:31;101856.00;;;21.62
68745;BMP180;55731;45.456;11.064;2022-10-18T10:29:58;101854.00;;;21.70
68745;BMP180;55731;45.456;11.064;2022-10-18T10:32:49;101849.20;;;21.80
68745;BMP180;55731;45.456;11.064;2022-10-18T10:35:35;101849.20;;;21.90
68745;BMP180;55731;45.456;11.064;2022-10-18T10:38:30;101853.40;;;21.90
68745;BMP180;55731;45.456;11.064;2022-10-18T10:41:20;101847.20;;;21.90
68745;BMP180;55731;45.456;11.064;2022-10-18T10:43:58;101844.60;;;21.90
68745;BMP180;55731;45.456;11.064;2022-10-18T10:46:40;101840.00;;;21.90
68745;BMP180;55731;45.456;11.064;2022-10-18T10:49:23;101833.80;;;22.00
68745;BMP180;55731;45.456;11.064;2022-10-18T10:52:20;101828.00;;;22.10
68745;BMP180;55731;45.456;11.064;2022-10-18T10:55:02;101826.40;;;22.20
68745;BMP180;55731;45.456;11.064;2022-10-18T10:58:00;101818.60;;;22.30
68745;BMP180;55731;45.456;11.064;2022-10-18T11:00:57;101811.80;;;22.30
68745;BMP180;55731;45.456;11.064;2022-10-18T11:03:34;101807.80;;;22.40
68745;BMP180;55731;45.456;11.064;2022-10-18T11:06:51;101794.80;;;22.50
68745;BMP180;55731;45.456;11.064;2022-10-18T11:12:35;101783.00;;;22.70
68745;BMP180;55731;45.456;11.064;2022-10-18T11:15:28;101773.80;;;22.80
68745;BMP180;55731;45.456;11.064;2022-10-18T11:18:19;101771.20;;;22.90
68745;BMP180;55731;45.456;11.064;2022-10-18T11:21:04;101764.40;;;22.90
68745;BMP180;55731;45.456;11.064;2022-10-18T11:23:44;101764.20;;;23.00
68745;BMP180;55731;45.456;11.064;2022-10-18T11:29:56;101742.40;;;23.12
68745;BMP180;55731;45.456;11.064;2022-10-18T11:32:46;101737.00;;;23.20
68745;BMP180;55731;45.456;11.064;2022-10-18T11:35:44;101734.20;;;23.20
68745;BMP180;55731;45.456;11.064;2022-10-18T11:38:41;101730.60;;;23.30
68745;BMP180;55731;45.456;11.064;2022-10-18T11:41:47;101725.00;;;23.40
68745;BMP180;55731;45.456;11.064;2022-10-18T11:44:36;101716.20;;;23.40
68745;BMP180;55731;45.456;11.064;2022-10-18T11:47:20;101707.80;;;23.50
68745;BMP180;55731;45.456;11.064;2022-10-18T11:50:12;101703.60;;;23.50
68745;BMP180;55731;45.456;11.064;2022-10-18T11:53:06;101701.40;;;23.60
68745;BMP180;55731;45.456;11.064;2022-10-18T11:55:59;101699.20;;;23.70
68745;BMP180;55731;45.456;11.064;2022-10-18T11:59:16;101692.20;;;23.70
68745;BMP180;55731;45.456;11.064;2022-10-18T12:02:23;101688.00;;;23.80
68745;BMP180;55731;45.456;11.064;2022-10-18T12:05:07;101685.60;;;23.80
68745;BMP180;55731;45.456;11.064;2022-10-18T12:08:04;101681.00;;;23.82
68745;BMP180;55731;45.456;11.064;2022-10-18T12:10:49;101677.00;;;23.90
68745;BMP180;55731;45.456;11.064;2022-10-18T12:13:47;101668.20;;;23.90
68745;BMP180;55731;45.456;11.064;2022-10-18T12:16:31;101664.40;;;24.00
68745;BMP180;55731;45.456;11.064;2022-10-18T12:19:26;101664.80;;;24.00
68745;BMP180;55731;45.456;11.064;2022-10-18T12:22:17;101659.20;;;24.00
68745;BMP180;55731;45.456;11.064;2022-10-18T12:24:55;101659.60;;;24.10
68745;BMP180;55731;45.456;11.064;2022-10-18T12:27:41;101653.60;;;24.10
68745;BMP180;55731;45.456;11.064;2022-10-18T12:30:29;101647.00;;;24.20
68745;BMP180;55731;45.456;11.064;2022-10-18T12:33:13;101649.00;;;24.20
68745;BMP180;55731;45.456;11.064;2022-10-18T12:36:09;101651.60;;;24.20
68745;BMP180;55731;45.456;11.064;2022-10-18T12:38:55;101648.40;;;24.20
68745;BMP180;55731;45.456;11.064;2022-10-18T12:41:34;101646.20;;;24.20
68745;BMP180;55731;45.456;11.064;2022-10-18T12:44:25;101642.60;;;24.20
68745;BMP180;55731;45.456;11.064;2022-10-18T12:47:06;101639.20;;;24.20
68745;BMP180;55731;45.456;11.064;2022-10-18T12:49:44;101640.20;;;24.20
68745;BMP180;55731;45.456;11.064;2022-10-18T12:52:31;101638.20;;;24.20
68745;BMP180;55731;45.456;11.064;2022-10-18T12:55:34;101638.80;;;24.20
68745;BMP180;55731;45.456;11.064;2022-10-18T13:01:11;101633.00;;;24.20
68745;BMP180;55731;45.456;11.064;2022-10-18T13:04:05;101629.00;;;24.20
68745;BMP180;55731;45.456;11.064;2022-10-18T13:07:30;101622.20;;;24.20
68745;BMP180;55731;45.456;11.064;2022-10-18T13:10:40;101616.60;;;24.20
68745;BMP180;55731;45.456;11.064;2022-10-18T13:14:00;101612.00;;;24.20
68745;BMP180;55731;45.456;11.064;2022-10-18T13:16:48;101607.40;;;24.20
68745;BMP180;55731;45.456;11.064;2022-10-18T13:19:45;101603.00;;;24.22
68745;BMP180;55731;45.456;11.064;2022-10-18T13:23:00;101604.40;;;24.30
68745;BMP180;55731;45.456;11.064;2022-10-18T13:25:56;101599.80;;;24.30
68745;BMP180;55731;45.456;11.064;2022-10-18T13:28:41;101602.60;;;24.30
68745;BMP180;55731;45.456;11.064;2022-10-18T13:31:34;101602.20;;;24.30
68745;BMP180;55731;45.456;11.064;2022-10-18T13:34:40;101599.80;;;24.30
68745;BMP180;55731;45.456;11.064;2022-10-18T13:37:26;101595.60;;;24.30
68745;BMP180;55731;45.456;11.064;2022-10-18T13:40:27;101590.20;;;24.24
68745;BMP180;55731;45.456;11.064;2022-10-18T13:43:50;101588.40;;;24.20
68745;BMP180;55731;45.456;11.064;2022-10-18T13:50:37;101588.20;;;24.20
68745;BMP180;55731;45.456;11.064;2022-10-18T13:53:44;101584.00;;;24.20
68745;BMP180;55731;45.456;11.064;2022-10-18T13:56:52;101587.60;;;24.20
68745;BMP180;55731;45.456;11.064;2022-10-18T14:00:17;101582.80;;;24.20
68745;BMP180;55731;45.456;11.064;2022-10-18T14:06:39;101583.60;;;24.20
68745;BMP180;55731;45.456;11.064;2022-10-18T14:09:22;101578.00;;;24.20
68745;BMP180;55731;45.456;11.064;2022-10-18T14:12:33;101578.60;;;24.20
68745;BMP180;55731;45.456;11.064;2022-10-18T14:15:18;101580.00;;;24.10
68745;BMP180;55731;45.456;11.064;2022-10-18T14:18:06;101582.00;;;24.10
68745;BMP180;55731;45.456;11.064;2022-10-18T14:20:50;101578.60;;;24.10
68745;BMP180;55731;45.456;11.064;2022-10-18T14:23:48;101580.60;;;24.00
68745;BMP180;55731;45.456;11.064;2022-10-18T14:26:25;101579.20;;;24.00
68745;BMP180;55731;45.456;11.064;2022-10-18T14:29:20;101582.00;;;24.00
68745;BMP180;55731;45.456;11.064;2022-10-18T14:31:58;101578.40;;;24.00
68745;BMP180;55731;45.456;11.064;2022-10-18T14:34:36;101572.80;;;23.94
68745;BMP180;55731;45.456;11.064;2022-10-18T14:37:26;101576.80;;;23.90
68745;BMP180;55731;45.456;11.064;2022-10-18T14:40:23;101576.20;;;23.90
68745;BMP180;55731;45.456;11.064;2022-10-18T14:43:09;101569.60;;;23.90
68745;BMP180;55731;45.456;11.064;2022-10-18T14:45:45;101569.20;;;23.82
68745;BMP180;55731;45.456;11.064;2022-10-18T14:48:25;101568.40;;;23.80
68745;BMP180;55731;45.456;11.064;2022-10-18T14:51:10;101565.80;;;23.80
68745;BMP180;55731;45.456;11.064;2022-10-18T14:53:52;101560.60;;;23.70
68745;BMP180;55731;45.456;11.064;2022-10-18T14:56:35;101561.60;;;23.70
68745;BMP180;55731;45.456;11.064;2022-10-18T14:59:22;101559.60;;;23.70
68745;BMP180;55731;45.456;11.064;2022-10-18T15:02:03;101556.20;;;23.70
68745;BMP180;55731;45.456;11.064;2022-10-18T15:04:44;101558.00;;;23.70
68745;BMP180;55731;45.456;11.064;2022-10-18T15:07:22;101561.60;;;23.60
68745;BMP180;55731;45.456;11.064;2022-10-18T15:10:04;101554.60;;;23.60
68745;BMP180;55731;45.456;11.064;2022-10-18T15:12:44;101558.00;;;23.60
68745;BMP180;55731;45.456;11.064;2022-10-18T15:15:41;101551.40;;;23.50
68745;BMP180;55731;45.456;11.064;2022-10-18T15:18:25;101555.60;;;23.50
68745;BMP180;55731;45.456;11.064;2022-10-18T15:21:24;101548.80;;;23.50
68745;BMP180;55731;45.456;11.064;2022-10-18T15:24:31;101552.20;;;23.40
68745;BMP180;55731;45.456;11.064;2022-10-18T15:27:19;101548.40;;;23.40
68745;BMP180;55731;45.456;11.064;2022-10-18T15:29:57;101549.80;;;23.40
68745;BMP180;55731;45.456;11.064;2022-10-18T15:32:49;101549.80;;;23.30